Terminal Aerodrome Forecast
Issued by NWS

Home | Current Version | Previous Version | Text Only | Print | Product List | Glossary On
Versions: 1 2 3 4 5 6 7 8 9 10 11 12 13 14 15 16 17 18 19 20 21 22 23
000
FTUS41 KGYX 250306 AAB
TAFRKD
TAF AMD
KRKD 250306Z 2503/2524 05006KT 1SM -RA BR OVC008 WS020/20050KT
     FM250400 14010G17KT 1/2SM -RA FG OVC001
     FM250700 20012G19KT 4SM -RA BR OVC003
     FM251500 21015G28KT P6SM BKN050=

USA.gov is the U.S. government's official web portal to all federal, state and local government web resources and services.